Pedrinhas, Brazil
Current Conditions -  °F | °C
As of 1:00 AM on Sunday 26 Oct 2014 (Local Time) from SBAR Reporting Station
Scattered Clouds Scattered Clouds  
Wind Chill: 77°   Ceiling: Unl
Heat Index: 79°   Visibility: 6mi
Dew Point: 64°   Wind: 9mph
Humidity: 65%   Direction: 90°E
Pressure: 29.91"   Gusts: NA
Location:  11.19°S, 37.67°W
Report Text: SBAR 260400Z 09008KT 9999 SCT017 25/18 Q1013
Loading
Personal Weather Stations






























Interactive Weather Map
Tropical Storm Tracking
New forecast layout! Learn more

10-Day Weather Forecast

Advertisements
Track Severe Weather on mobile